This is the latest recevied weather packets stored in our database for station/object SP3OTE-2. If no packets are shown the sender has not sent any weather packets the latest 1 day(s).
| Time | Temp. | Humidity | Pressure | Rain* | Wind** | Luminosity | Snow |
|---|---|---|---|---|---|---|---|
| 1778059145 | 20.56° C | 58% | 1006.1 hPa | - | - | - | - |
| 1778057344 | 20.56° C | 62% | 1005.8 hPa | - | - | - | - |
| 1778054343 | 18.89° C | 71% | 1005.7 hPa | - | - | - | - |
| 1778052542 | 18.89° C | 70% | 1005.7 hPa | - | - | - | - |
| 1778051942 | 18.89° C | 69% | 1005.7 hPa | - | - | - | - |
| 1778050741 | 18.33° C | 70% | 1005.5 hPa | - | - | - | - |
| 1778050141 | 18.33° C | 72% | 1005.4 hPa | - | - | - | - |
| 1778049541 | 18.33° C | 72% | 1005.5 hPa | - | - | - | - |
| 1778047739 | 16.67° C | 76% | 1005 hPa | - | - | - | - |
| 1778047139 | 16.11° C | 77% | 1005 hPa | - | - | - | - |
| 1778046538 | 16.11° C | 78% | 1004.9 hPa | - | - | - | - |
| 1778045938 | 16.11° C | 77% | 1004.9 hPa | - | - | - | - |
| 1778045338 | 16.11° C | 77% | 1004.9 hPa | - | - | - | - |
| 1778043537 | 15° C | 78% | 1004.6 hPa | - | - | - | - |
| 1778042937 | 15° C | 79% | 1004.7 hPa | - | - | - | - |
| 1778042336 | 14.44° C | 81% | 1004.6 hPa | - | - | - | - |
| 1778041736 | 13.89° C | 82% | 1004.7 hPa | - | - | - | - |
| 1778041136 | 13.89° C | 84% | 1004.7 hPa | - | - | - | - |
| 1778040535 | 13.33° C | 87% | 1004.7 hPa | - | - | - | - |
| 1778039935 | 12.78° C | 89% | 1004.7 hPa | - | - | - | - |
| 1778038734 | 12.22° C | 89% | 1004.7 hPa | - | - | - | - |
| 1778038134 | 12.22° C | 90% | 1004.9 hPa | - | - | - | - |
| 1778037533 | 12.22° C | 92% | 1004.9 hPa | - | - | - | - |
| 1778036933 | 11.67° C | 93% | 1004.9 hPa | - | - | - | - |
| 1778036333 | 11.67° C | 95% | 1004.9 hPa | - | - | - | - |
* Rain since midnight (hover to see other rain measurements)
** Current wind speed in m/s (hover to see current wind gust speed)